Time;durP1;ratioP1;P1;durP2;ratioP2;P2;SDS_P1;SDS_P2;PMS_P1;PMS_P2;Temp;Humidity;BMP_temperature;BMP_pressure;BME280_temperature;BME280_humidity;BME280_pressure;Samples;Min_cycle;Max_cycle;Signal;HPM_P1;HPM_P2
2022/11/18 00:02:13;;;;;;;0.80;0.70;;;7.20;99.90;;;;;;5013519;28;20207;-70
2022/11/18 00:04:40;;;;;;;2.20;1.10;;;7.20;99.90;;;;;;5014143;28;20206;-71
2022/11/18 00:07:07;;;;;;;1.70;1.00;;;7.20;99.90;;;;;;5013934;28;20218;-72
2022/11/18 00:09:34;;;;;;;0.70;0.70;;;7.20;99.90;;;;;;5014212;28;20214;-73
2022/11/18 00:14:44;;;;;;;0.80;0.73;;;7.20;99.90;;;;;;5014184;28;20700;-71
2022/11/18 00:17:12;;;;;;;3.65;1.20;;;7.30;99.90;;;;;;5014185;28;20207;-71
2022/11/18 00:19:40;;;;;;;0.90;0.80;;;7.20;99.90;;;;;;5013378;28;20207;-71
2022/11/18 00:22:10;;;;;;;0.80;0.70;;;7.20;99.90;;;;;;5013674;28;20202;-71
2022/11/18 00:24:37;;;;;;;0.98;0.80;;;7.20;99.90;;;;;;5013453;28;20210;-71
2022/11/18 00:27:04;;;;;;;1.00;0.85;;;7.30;99.90;;;;;;5013925;28;20200;-71
2022/11/18 00:29:31;;;;;;;0.80;0.70;;;7.30;99.90;;;;;;5013407;28;20214;-70
2022/11/18 00:31:58;;;;;;;1.02;0.90;;;7.30;99.90;;;;;;5012721;28;20243;-71
2022/11/18 00:34:26;;;;;;;1.15;0.95;;;7.30;99.90;;;;;;5013443;28;20222;-72
2022/11/18 00:36:53;;;;;;;0.80;0.80;;;7.30;99.90;;;;;;5013349;28;20283;-72
2022/11/18 00:39:20;;;;;;;1.35;1.10;;;7.30;99.90;;;;;;5013523;28;20210;-72
2022/11/18 00:44:31;;;;;;;0.80;0.70;;;7.30;99.90;;;;;;5013807;28;20653;-71
2022/11/18 00:46:58;;;;;;;0.90;0.77;;;7.30;99.90;;;;;;5013548;28;20203;-70
2022/11/18 00:49:26;;;;;;;0.80;0.70;;;7.30;99.90;;;;;;5012799;28;20207;-72
2022/11/18 00:51:53;;;;;;;1.20;1.02;;;7.30;99.90;;;;;;5012412;28;20611;-72
2022/11/18 00:54:20;;;;;;;1.13;1.00;;;7.30;99.90;;;;;;5012694;28;20227;-72
2022/11/18 00:56:48;;;;;;;1.00;0.90;;;7.30;99.90;;;;;;5012830;28;20202;-71
2022/11/18 00:59:15;;;;;;;0.95;0.85;;;7.30;99.90;;;;;;5012788;28;20205;-72
2022/11/18 01:01:41;;;;;;;0.80;0.75;;;7.30;99.90;;;;;;5011801;28;20230;-72
2022/11/18 01:04:08;;;;;;;1.15;0.90;;;7.20;99.90;;;;;;5013098;28;20222;-71
2022/11/18 01:06:36;;;;;;;0.90;0.80;;;7.20;99.90;;;;;;5012739;28;20203;-71
2022/11/18 01:09:03;;;;;;;1.00;0.90;;;7.20;99.90;;;;;;5012442;28;20199;-72
2022/11/18 01:14:14;;;;;;;0.85;0.70;;;7.20;99.90;;;;;;5012423;28;20704;-71
2022/11/18 01:16:41;;;;;;;0.80;0.70;;;7.20;99.90;;;;;;5012370;28;20199;-71
2022/11/18 01:19:08;;;;;;;1.40;0.95;;;7.20;99.90;;;;;;5012418;28;20203;-72
2022/11/18 01:21:36;;;;;;;0.80;0.70;;;7.20;99.90;;;;;;5011823;28;20225;-71
2022/11/18 01:24:03;;;;;;;2.83;0.80;;;7.20;99.90;;;;;;5013005;28;20207;-70
2022/11/18 01:26:30;;;;;;;0.90;0.80;;;7.20;99.90;;;;;;5012756;28;20203;-71
2022/11/18 01:28:57;;;;;;;1.10;0.80;;;7.20;99.90;;;;;;5011943;28;20228;-71
2022/11/18 01:31:24;;;;;;;0.80;0.70;;;7.20;99.90;;;;;;5011183;28;20231;-71
2022/11/18 01:33:51;;;;;;;0.70;0.70;;;7.20;99.90;;;;;;5012138;28;20203;-72
2022/11/18 01:36:20;;;;;;;0.70;0.60;;;7.20;99.90;;;;;;5011492;28;20266;-72
2022/11/18 01:38:49;;;;;;;0.70;0.60;;;7.20;99.90;;;;;;5011914;28;20226;-72
2022/11/18 01:41:17;;;;;;;2.35;1.23;;;7.20;99.90;;;;;;5011223;28;20231;-72
2022/11/18 01:43:52;;;;;;;1.05;0.95;;;7.20;99.90;;;;;;5011862;28;20207;-72
2022/11/18 01:46:20;;;;;;;0.90;0.73;;;7.30;99.90;;;;;;5012645;28;20198;-72
2022/11/18 01:48:50;;;;;;;1.27;0.80;;;7.30;99.90;;;;;;5011878;28;20221;-72
2022/11/18 01:51:19;;;;;;;2.35;0.80;;;7.30;99.90;;;;;;5011613;28;20718;-71
2022/11/18 01:53:53;;;;;;;0.80;0.70;;;7.30;99.90;;;;;;5011957;28;20213;-72
2022/11/18 01:56:23;;;;;;;0.80;0.70;;;7.30;99.90;;;;;;5012218;28;20235;-72
2022/11/18 01:58:54;;;;;;;0.70;0.63;;;7.30;99.90;;;;;;5011716;28;20203;-70
2022/11/18 02:01:20;;;;;;;0.80;0.80;;;7.30;99.90;;;;;;5011487;28;20230;-71
2022/11/18 02:03:49;;;;;;;0.90;0.70;;;7.20;99.90;;;;;;5011948;28;20203;-71
2022/11/18 02:06:16;;;;;;;0.90;0.70;;;7.30;99.90;;;;;;5011567;28;20199;-71
2022/11/18 02:08:43;;;;;;;1.65;0.80;;;7.30;99.90;;;;;;5011387;28;20688;-71
2022/11/18 02:11:49;;;;;;;1.27;0.77;;;7.30;99.90;;;;;;5010494;28;20222;-70
2022/11/18 02:14:02;;;;;;;0.90;0.70;;;7.30;99.90;;;;;;5011163;28;20210;-71
2022/11/18 02:16:39;;;;;;;0.70;0.60;;;7.30;99.90;;;;;;5011023;28;20721;-71
2022/11/18 02:19:22;;;;;;;0.80;0.70;;;7.30;99.90;;;;;;5011351;28;20202;-71
2022/11/18 02:22:03;;;;;;;0.80;0.70;;;7.30;99.90;;;;;;5010598;28;20221;-71
2022/11/18 02:24:42;;;;;;;0.80;0.70;;;7.30;99.90;;;;;;5010976;28;20217;-71
2022/11/18 02:27:49;;;;;;;1.90;0.77;;;7.30;99.90;;;;;;5011331;28;20203;-71
2022/11/18 02:30:18;;;;;;;1.70;0.70;;;7.30;99.90;;;;;;4960805;28;20737;-71
2022/11/18 02:32:53;;;;;;;1.05;0.77;;;7.30;99.90;;;;;;5010761;28;20641;-72
2022/11/18 02:35:27;;;;;;;1.35;0.90;;;7.30;99.90;;;;;;5010796;28;20228;-72
2022/11/18 02:37:58;;;;;;;1.90;0.80;;;7.40;99.90;;;;;;5010913;28;20673;-71
2022/11/18 02:40:30;;;;;;;1.25;0.85;;;7.40;99.90;;;;;;5010036;28;20226;-72
2022/11/18 02:43:01;;;;;;;0.70;0.60;;;7.40;99.90;;;;;;5010865;28;20580;-71
2022/11/18 02:45:31;;;;;;;1.13;0.80;;;7.40;99.90;;;;;;5010946;28;20662;-72
2022/11/18 02:48:02;;;;;;;0.90;0.70;;;7.40;99.90;;;;;;5010757;28;20202;-72
2022/11/18 02:50:31;;;;;;;1.10;0.70;;;7.50;99.90;;;;;;5010374;28;20226;-70
2022/11/18 02:53:01;;;;;;;1.35;0.80;;;7.50;99.90;;;;;;5010667;28;20210;-71
2022/11/18 02:55:31;;;;;;;0.70;0.60;;;7.50;99.90;;;;;;5010981;28;20251;-71
2022/11/18 02:58:00;;;;;;;0.80;0.70;;;7.50;99.90;;;;;;5010595;28;20210;-71
2022/11/18 03:00:28;;;;;;;1.10;0.70;;;7.50;99.90;;;;;;5010193;28;20235;-71
2022/11/18 03:02:55;;;;;;;0.90;0.73;;;7.50;99.90;;;;;;5010743;28;20203;-72
2022/11/18 03:05:27;;;;;;;0.80;0.70;;;7.50;99.90;;;;;;5010607;28;20589;-71
2022/11/18 03:08:00;;;;;;;0.80;0.70;;;7.50;99.90;;;;;;5010694;28;20210;-71
2022/11/18 03:10:35;;;;;;;0.70;0.60;;;7.50;99.90;;;;;;5009725;28;20231;-71
2022/11/18 03:13:11;;;;;;;0.77;0.73;;;7.50;99.90;;;;;;5010580;28;20221;-70
2022/11/18 03:15:47;;;;;;;1.10;0.70;;;7.50;99.90;;;;;;5010189;28;20226;-71
2022/11/18 03:18:20;;;;;;;0.90;0.80;;;7.50;99.90;;;;;;5010897;28;20200;-71
2022/11/18 03:20:50;;;;;;;0.80;0.70;;;7.50;99.90;;;;;;5009923;28;20229;-70
2022/11/18 03:23:24;;;;;;;1.15;0.77;;;7.50;99.90;;;;;;5010451;28;20203;-72
2022/11/18 03:25:55;;;;;;;0.80;0.70;;;7.50;99.90;;;;;;5010617;28;20210;-72
2022/11/18 03:28:27;;;;;;;0.80;0.70;;;7.60;99.90;;;;;;5010265;28;20207;-71
2022/11/18 03:31:00;;;;;;;1.95;0.90;;;7.60;99.90;;;;;;5009681;28;20241;-71
2022/11/18 03:33:33;;;;;;;1.33;0.73;;;7.50;99.90;;;;;;5011256;28;20208;-71
2022/11/18 03:36:03;;;;;;;0.80;0.70;;;7.50;99.90;;;;;;5012527;28;20281;-71
2022/11/18 03:38:34;;;;;;;2.30;0.80;;;7.50;99.90;;;;;;5014928;28;20206;-71
2022/11/18 03:41:05;;;;;;;0.80;0.80;;;7.50;99.90;;;;;;5014221;28;20223;-71
2022/11/18 03:43:38;;;;;;;1.13;0.90;;;7.40;99.90;;;;;;5014717;28;20560;-71
2022/11/18 03:46:09;;;;;;;0.95;0.85;;;7.50;99.90;;;;;;5014359;28;20196;-72
2022/11/18 03:48:40;;;;;;;0.80;0.70;;;7.50;99.90;;;;;;5015261;28;20568;-71
2022/11/18 03:51:09;;;;;;;0.80;0.70;;;7.50;99.90;;;;;;5014447;28;20223;-72
2022/11/18 03:53:48;;;;;;;0.98;0.88;;;7.50;99.90;;;;;;5014756;28;20199;-72
2022/11/18 03:56:18;;;;;;;0.90;0.80;;;7.50;99.90;;;;;;5014788;28;20590;-71
2022/11/18 03:58:52;;;;;;;0.80;0.70;;;7.50;99.90;;;;;;5014153;28;20201;-69
2022/11/18 04:01:26;;;;;;;0.88;0.88;;;7.50;99.90;;;;;;5013918;28;20232;-71
2022/11/18 04:03:53;;;;;;;1.00;0.80;;;7.50;99.90;;;;;;5013541;28;20207;-72
2022/11/18 04:06:25;;;;;;;1.48;1.00;;;7.50;99.90;;;;;;5013850;28;20206;-70
2022/11/18 04:08:57;;;;;;;0.90;0.80;;;7.50;99.90;;;;;;5013720;28;20212;-72
2022/11/18 04:14:18;;;;;;;1.25;0.77;;;7.50;99.90;;;;;;5013824;28;20210;-71
2022/11/18 04:16:51;;;;;;;0.90;0.70;;;7.50;99.90;;;;;;5013180;28;20240;-70
2022/11/18 04:19:18;;;;;;;0.80;0.70;;;7.50;99.90;;;;;;5013703;28;20214;-72
2022/11/18 04:21:45;;;;;;;0.90;0.70;;;7.50;99.90;;;;;;5012338;28;20234;-70
2022/11/18 04:24:12;;;;;;;0.90;0.70;;;7.50;99.90;;;;;;5013655;28;20210;-71
2022/11/18 04:26:38;;;;;;;1.00;0.80;;;7.50;99.90;;;;;;5013426;28;20205;-71
2022/11/18 04:29:05;;;;;;;2.58;1.00;;;7.50;99.90;;;;;;5012652;28;20215;-70
2022/11/18 04:31:32;;;;;;;1.20;0.70;;;7.40;99.90;;;;;;5012389;28;20220;-71
2022/11/18 04:34:00;;;;;;;1.00;0.80;;;7.40;99.90;;;;;;5012696;28;20748;-72
2022/11/18 04:36:27;;;;;;;0.80;0.70;;;7.40;99.90;;;;;;5013150;28;20226;-71
2022/11/18 04:38:53;;;;;;;0.70;0.60;;;7.30;99.90;;;;;;5013140;28;20217;-71
2022/11/18 04:41:54;;;;;;;0.80;0.70;;;7.30;99.90;;;;;;5012438;28;20595;-70
2022/11/18 04:44:11;;;;;;;0.80;0.70;;;7.20;99.90;;;;;;5013241;28;20681;-71
2022/11/18 04:46:39;;;;;;;0.80;0.70;;;7.20;99.90;;;;;;5012767;28;20207;-71
2022/11/18 04:49:07;;;;;;;0.70;0.70;;;7.20;99.90;;;;;;5013506;28;20207;-70
2022/11/18 04:51:34;;;;;;;0.80;0.70;;;7.20;99.90;;;;;;5012388;28;20602;-72
2022/11/18 04:54:00;;;;;;;0.80;0.70;;;7.20;99.90;;;;;;5012606;28;20255;-72
2022/11/18 04:56:27;;;;;;;0.77;0.70;;;7.20;99.90;;;;;;5013177;28;20227;-71
2022/11/18 04:58:54;;;;;;;0.80;0.70;;;7.10;99.90;;;;;;5012003;28;20222;-72
2022/11/18 05:01:21;;;;;;;0.80;0.70;;;7.20;99.90;;;;;;5012091;28;20231;-72
2022/11/18 05:03:47;;;;;;;1.08;0.75;;;7.10;99.90;;;;;;5012069;28;20210;-70
2022/11/18 05:06:15;;;;;;;0.70;0.60;;;7.10;99.90;;;;;;5012750;28;20195;-72
2022/11/18 05:08:42;;;;;;;1.20;0.80;;;7.10;99.90;;;;;;5012548;28;20215;-73
2022/11/18 05:13:54;;;;;;;0.82;0.80;;;7.00;99.90;;;;;;5012562;28;20285;-72
2022/11/18 05:16:20;;;;;;;1.55;0.70;;;7.00;99.90;;;;;;5012168;28;20226;-71
2022/11/18 05:18:47;;;;;;;2.05;1.60;;;7.00;99.90;;;;;;5012168;28;20208;-71
2022/11/18 05:21:15;;;;;;;2.58;1.85;;;7.00;99.90;;;;;;5012422;28;20226;-71
2022/11/18 05:23:42;;;;;;;2.33;1.70;;;6.90;99.90;;;;;;5012756;28;20214;-72
2022/11/18 05:26:11;;;;;;;1.30;1.10;;;6.90;99.90;;;;;;5012386;28;20199;-69
2022/11/18 05:28:38;;;;;;;1.95;1.27;;;7.00;99.90;;;;;;5011278;28;20196;-71
2022/11/18 05:31:07;;;;;;;1.30;1.20;;;6.90;99.90;;;;;;5023720;22;20298;-68
2022/11/18 05:33:34;;;;;;;1.20;1.10;;;6.90;99.90;;;;;;4992325;28;20203;-68
2022/11/18 05:36:03;;;;;;;1.35;0.90;;;6.90;99.90;;;;;;4992748;28;20706;-67
2022/11/18 05:38:32;;;;;;;1.48;0.88;;;6.90;99.90;;;;;;4992503;28;20206;-64
2022/11/18 05:40:58;;;;;;;1.15;0.70;;;6.90;99.90;;;;;;4991416;28;20227;-64
2022/11/18 05:43:24;;;;;;;1.42;0.70;;;6.80;99.90;;;;;;4992363;28;20224;-67
2022/11/18 05:45:52;;;;;;;1.20;1.10;;;6.80;99.90;;;;;;4992123;28;20655;-67
2022/11/18 05:48:19;;;;;;;1.00;0.90;;;6.70;99.90;;;;;;4991200;28;20678;-65
2022/11/18 05:50:48;;;;;;;0.88;0.73;;;6.60;99.90;;;;;;4991233;28;20227;-67
2022/11/18 05:53:15;;;;;;;1.02;0.85;;;6.60;99.90;;;;;;4992318;28;20211;-67
2022/11/18 05:55:49;;;;;;;0.80;0.75;;;6.70;99.90;;;;;;4992214;28;20226;-67
2022/11/18 05:58:15;;;;;;;1.50;1.00;;;6.70;99.90;;;;;;4991232;28;20669;-66
2022/11/18 06:00:43;;;;;;;0.85;0.70;;;6.70;99.90;;;;;;4991322;28;20234;-66
2022/11/18 06:03:17;;;;;;;1.55;0.90;;;6.70;99.90;;;;;;4991883;28;20210;-66
2022/11/18 06:05:44;;;;;;;0.90;0.70;;;6.70;99.90;;;;;;4992400;28;20210;-67
2022/11/18 06:08:14;;;;;;;0.90;0.70;;;6.60;99.90;;;;;;4991913;28;20200;-66
2022/11/18 06:10:45;;;;;;;2.15;0.90;;;6.60;99.90;;;;;;4991335;28;20223;-66
2022/11/18 06:13:20;;;;;;;1.30;0.77;;;6.60;99.90;;;;;;4992444;28;20583;-65
2022/11/18 06:15:47;;;;;;;1.25;0.80;;;6.70;99.90;;;;;;4992162;28;20239;-66
2022/11/18 06:18:20;;;;;;;1.50;1.08;;;6.70;99.90;;;;;;4992133;28;20211;-67
2022/11/18 06:20:47;;;;;;;1.35;0.80;;;6.60;99.90;;;;;;4991114;28;20612;-66
2022/11/18 06:23:14;;;;;;;1.52;1.13;;;6.60;99.90;;;;;;4992438;28;20199;-67
2022/11/18 06:25:42;;;;;;;1.17;0.90;;;6.60;99.90;;;;;;4992125;28;20218;-66
2022/11/18 06:28:12;;;;;;;0.93;0.90;;;6.70;99.90;;;;;;4992404;28;20212;-66
2022/11/18 06:30:39;;;;;;;2.50;1.45;;;6.70;99.90;;;;;;4991489;28;20246;-67
2022/11/18 06:33:06;;;;;;;1.42;0.80;;;6.60;99.90;;;;;;4991736;28;20224;-66
2022/11/18 06:35:32;;;;;;;0.90;0.80;;;6.60;99.90;;;;;;4991880;28;20207;-67
2022/11/18 06:37:59;;;;;;;0.80;0.70;;;6.60;99.90;;;;;;4991734;28;20208;-67
2022/11/18 06:40:26;;;;;;;0.80;0.70;;;6.60;99.90;;;;;;4991009;28;20715;-66
2022/11/18 06:46:54;;;;;;;0.70;0.60;;;6.60;99.90;;;;;;4992119;28;20226;-67
2022/11/18 06:48:25;;;;;;;0.80;0.80;;;6.60;99.90;;;;;;4991610;28;20203;-67
2022/11/18 06:50:52;;;;;;;1.23;0.82;;;6.60;99.90;;;;;;4990981;28;20718;-67
2022/11/18 06:53:19;;;;;;;1.13;0.90;;;6.60;99.90;;;;;;4995151;28;20200;-66
2022/11/18 06:55:45;;;;;;;0.80;0.70;;;6.70;99.90;;;;;;5010883;28;20202;-67
2022/11/18 06:58:12;;;;;;;1.00;0.90;;;6.60;99.90;;;;;;5011452;28;20226;-67
2022/11/18 07:00:40;;;;;;;0.88;0.80;;;6.70;99.90;;;;;;5010620;28;20227;-67
2022/11/18 07:03:07;;;;;;;0.80;0.80;;;6.60;99.90;;;;;;5011571;28;20524;-67
2022/11/18 07:05:34;;;;;;;0.80;0.77;;;6.60;99.90;;;;;;5011942;28;20211;-66
2022/11/18 07:08:00;;;;;;;1.00;0.80;;;6.60;99.90;;;;;;5011346;28;20672;-66
2022/11/18 07:10:27;;;;;;;0.80;0.80;;;6.60;99.90;;;;;;5011452;28;20235;-67
2022/11/18 07:12:54;;;;;;;1.10;1.00;;;6.60;99.90;;;;;;5015830;28;20202;-66
2022/11/18 07:15:20;;;;;;;0.98;0.80;;;6.60;99.90;;;;;;5015582;28;20225;-67
2022/11/18 07:17:48;;;;;;;1.00;0.90;;;6.60;99.90;;;;;;5015613;28;20574;-67
2022/11/18 07:20:16;;;;;;;1.20;1.10;;;6.60;99.90;;;;;;5015173;28;20709;-67
2022/11/18 07:22:42;;;;;;;1.38;1.10;;;6.70;99.90;;;;;;5015309;28;20296;-67
2022/11/18 07:25:10;;;;;;;1.50;1.00;;;6.70;99.90;;;;;;5015799;28;20205;-67
2022/11/18 07:27:36;;;;;;;1.05;0.95;;;6.70;99.90;;;;;;5015101;28;20225;-67
2022/11/18 07:30:03;;;;;;;2.20;1.60;;;6.80;99.90;;;;;;5015185;28;20628;-66
2022/11/18 07:32:32;;;;;;;1.55;0.90;;;6.80;99.90;;;;;;5014827;28;20211;-67
2022/11/18 07:35:00;;;;;;;3.13;1.13;;;6.80;99.90;;;;;;5015453;28;20214;-65
2022/11/18 07:37:27;;;;;;;1.20;0.90;;;6.80;99.90;;;;;;5014798;28;20674;-66
2022/11/18 07:39:54;;;;;;;1.67;1.50;;;6.80;99.90;;;;;;5015507;28;20229;-67
2022/11/18 07:42:21;;;;;;;0.80;0.80;;;6.80;99.90;;;;;;5013965;28;20685;-67
2022/11/18 07:44:47;;;;;;;1.38;1.17;;;6.90;99.90;;;;;;5015510;28;20214;-67
2022/11/18 07:47:14;;;;;;;1.00;0.80;;;7.00;99.90;;;;;;5014674;28;20202;-65
2022/11/18 07:49:41;;;;;;;1.00;0.80;;;7.00;99.90;;;;;;5015589;28;20211;-66
2022/11/18 07:52:09;;;;;;;2.00;1.00;;;7.00;99.90;;;;;;5014216;28;20214;-67
2022/11/18 07:54:36;;;;;;;1.00;0.82;;;7.00;99.90;;;;;;5014465;28;20210;-67
2022/11/18 07:57:02;;;;;;;5.60;0.98;;;7.00;99.90;;;;;;5014764;28;20845;-67
2022/11/18 07:59:29;;;;;;;1.23;0.75;;;7.00;99.90;;;;;;5014079;28;20211;-66
2022/11/18 08:01:56;;;;;;;1.00;0.80;;;7.10;99.90;;;;;;5014323;28;20223;-67
2022/11/18 08:04:23;;;;;;;1.25;0.90;;;7.20;99.90;;;;;;5014532;28;20279;-67
2022/11/18 08:06:50;;;;;;;1.55;1.05;;;7.20;99.90;;;;;;5014880;28;20570;-66
2022/11/18 08:09:18;;;;;;;0.80;0.70;;;7.20;99.90;;;;;;5014513;28;20674;-67
2022/11/18 08:11:44;;;;;;;1.00;0.90;;;7.20;99.90;;;;;;5013832;28;20620;-66
2022/11/18 08:14:11;;;;;;;0.80;0.70;;;7.20;99.90;;;;;;5014832;28;20202;-67
2022/11/18 08:16:38;;;;;;;0.85;0.80;;;7.30;99.90;;;;;;5014250;28;20231;-66
2022/11/18 08:19:05;;;;;;;1.27;1.00;;;7.30;99.90;;;;;;5014740;28;20619;-67
2022/11/18 08:21:31;;;;;;;1.63;1.10;;;7.30;99.90;;;;;;5013447;28;20235;-66
2022/11/18 08:23:58;;;;;;;1.02;0.90;;;7.30;99.90;;;;;;5014320;28;20202;-65
2022/11/18 08:26:27;;;;;;;0.80;0.70;;;7.40;99.90;;;;;;5014618;28;20203;-67
2022/11/18 08:28:54;;;;;;;1.10;0.90;;;7.30;99.90;;;;;;5014279;28;20590;-66
2022/11/18 08:31:23;;;;;;;0.82;0.70;;;7.40;99.90;;;;;;5013286;28;20353;-66
2022/11/18 08:33:54;;;;;;;0.80;0.77;;;7.40;99.90;;;;;;5014235;28;20202;-66
2022/11/18 08:36:23;;;;;;;0.98;0.88;;;7.40;99.90;;;;;;5014282;28;20227;-65
2022/11/18 08:38:50;;;;;;;0.98;0.88;;;7.40;99.90;;;;;;5011503;28;20201;-66
2022/11/18 08:41:21;;;;;;;1.10;0.90;;;7.40;99.90;;;;;;5006586;28;20215;-65
2022/11/18 08:43:49;;;;;;;1.05;0.95;;;7.50;99.90;;;;;;5012930;28;20211;-66
2022/11/18 08:46:15;;;;;;;0.95;0.88;;;7.50;99.90;;;;;;5012414;28;20199;-66
2022/11/18 08:48:42;;;;;;;0.80;0.75;;;7.60;99.90;;;;;;5013557;28;20668;-66
2022/11/18 08:51:11;;;;;;;1.23;0.95;;;7.60;99.90;;;;;;5012893;28;20558;-66
2022/11/18 08:53:38;;;;;;;0.90;0.75;;;7.60;99.90;;;;;;5014094;28;20207;-66
2022/11/18 08:56:04;;;;;;;0.80;0.80;;;7.70;99.90;;;;;;5013890;28;20218;-67
2022/11/18 08:58:31;;;;;;;1.20;1.10;;;7.70;99.90;;;;;;5013545;28;20230;-66
2022/11/18 09:01:05;;;;;;;1.08;0.98;;;7.80;99.90;;;;;;5013100;28;20668;-66
2022/11/18 09:03:31;;;;;;;1.45;0.80;;;7.80;99.90;;;;;;5013538;28;20239;-66
2022/11/18 09:06:05;;;;;;;1.33;1.17;;;7.90;99.90;;;;;;5013756;28;20213;-67
2022/11/18 09:08:32;;;;;;;1.27;0.98;;;7.90;99.90;;;;;;5013052;28;20203;-66
2022/11/18 09:10:59;;;;;;;1.92;0.90;;;8.00;99.90;;;;;;5013074;28;20232;-66
2022/11/18 09:13:26;;;;;;;1.33;0.90;;;8.00;99.90;;;;;;5299225;22;20622;-69
2022/11/18 09:15:52;;;;;;;1.10;0.93;;;8.00;99.90;;;;;;5032949;28;20217;-69
2022/11/18 09:18:20;;;;;;;1.00;0.88;;;8.10;99.90;;;;;;5032516;28;20222;-69
2022/11/18 09:20:54;;;;;;;1.48;1.30;;;8.10;99.90;;;;;;5032066;28;20225;-69
2022/11/18 09:23:21;;;;;;;3.17;1.27;;;8.00;99.90;;;;;;5032770;28;20633;-69
2022/11/18 09:25:47;;;;;;;1.27;1.10;;;8.00;99.90;;;;;;5033076;28;20578;-69
2022/11/18 09:28:14;;;;;;;1.15;0.93;;;8.00;99.90;;;;;;5032368;28;20496;-69
2022/11/18 09:30:41;;;;;;;3.42;1.15;;;8.00;99.90;;;;;;5027529;28;20579;-69
2022/11/18 09:33:08;;;;;;;1.10;1.00;;;7.90;99.90;;;;;;5026963;28;20199;-69
2022/11/18 09:35:36;;;;;;;2.08;1.00;;;8.00;99.90;;;;;;5028654;28;20209;-69
2022/11/18 09:38:02;;;;;;;1.05;0.95;;;8.10;99.90;;;;;;5028243;28;20217;-69
2022/11/18 09:40:46;;;;;;;1.15;1.05;;;8.20;99.90;;;;;;5027989;28;20614;-69
2022/11/18 09:43:20;;;;;;;1.63;1.05;;;8.40;99.90;;;;;;5027984;28;20190;-69
2022/11/18 09:45:56;;;;;;;1.00;0.90;;;8.50;99.90;;;;;;5027467;28;20193;-69
2022/11/18 09:49:11;;;;;;;1.48;0.95;;;8.70;99.90;;;;;;5026747;28;20291;-69
2022/11/18 09:51:14;;;;;;;2.03;1.00;;;8.90;99.90;;;;;;5031465;28;20217;-69
2022/11/18 09:53:44;;;;;;;1.73;1.15;;;9.10;99.90;;;;;;5118416;22;20369;-66
2022/11/18 09:58:39;;;;;;;1.10;0.80;;;9.80;99.90;;;;;;5013122;28;20222;-67
2022/11/18 10:01:12;;;;;;;2.05;0.90;;;10.50;99.90;;;;;;5015384;28;20224;-68
2022/11/18 10:03:39;;;;;;;1.27;0.90;;;11.10;99.90;;;;;;5010982;28;20210;-67
2022/11/18 10:06:20;;;;;;;1.67;0.75;;;11.00;99.90;;;;;;5018872;28;20199;-68
2022/11/18 10:09:01;;;;;;;0.90;0.80;;;10.70;99.90;;;;;;5015807;28;20622;-68
2022/11/18 10:11:35;;;;;;;1.00;0.90;;;10.40;99.90;;;;;;5014762;28;20215;-68
2022/11/18 10:14:19;;;;;;;1.02;0.70;;;10.20;99.90;;;;;;5014015;28;20205;-68
2022/11/18 10:16:57;;;;;;;1.00;0.90;;;9.90;99.90;;;;;;5015257;28;20210;-68
2022/11/18 10:19:31;;;;;;;1.15;0.88;;;9.80;99.90;;;;;;5014977;28;20232;-68
2022/11/18 10:22:14;;;;;;;2.88;0.93;;;9.70;99.90;;;;;;5017772;28;20588;-67
2022/11/18 10:24:44;;;;;;;0.90;0.80;;;9.60;99.90;;;;;;5018682;28;20199;-68
2022/11/18 10:27:15;;;;;;;1.30;1.10;;;9.40;99.90;;;;;;5011345;28;20191;-68
2022/11/18 10:29:42;;;;;;;1.00;0.80;;;9.40;99.90;;;;;;5012718;28;20218;-68
2022/11/18 10:32:13;;;;;;;1.35;0.80;;;9.30;99.90;;;;;;5019157;28;20685;-68
2022/11/18 10:34:47;;;;;;;1.00;0.90;;;9.20;99.90;;;;;;5020754;28;20199;-67
2022/11/18 10:37:23;;;;;;;1.10;0.90;;;9.20;99.90;;;;;;5016362;28;20222;-68
2022/11/18 10:39:52;;;;;;;0.90;0.80;;;9.20;99.90;;;;;;5015243;28;20572;-67
2022/11/18 10:42:27;;;;;;;1.00;0.85;;;9.20;99.90;;;;;;5021250;28;20191;-67
2022/11/18 10:44:54;;;;;;;1.85;1.40;;;9.10;99.90;;;;;;5015637;28;20574;-67
2022/11/18 10:47:31;;;;;;;1.25;0.82;;;9.10;99.90;;;;;;5017624;28;20661;-68
2022/11/18 10:50:00;;;;;;;1.20;1.00;;;9.10;99.90;;;;;;5015899;28;20222;-68
2022/11/18 10:52:30;;;;;;;1.30;1.10;;;9.00;99.90;;;;;;5018839;28;20207;-68
2022/11/18 10:55:18;;;;;;;1.35;1.00;;;9.00;99.90;;;;;;5014567;28;20195;-68
2022/11/18 10:57:47;;;;;;;1.42;1.00;;;9.00;99.90;;;;;;5011656;28;20222;-68
2022/11/18 11:00:44;;;;;;;1.40;1.20;;;9.00;99.90;;;;;;5015598;28;20279;-69
2022/11/18 11:03:26;;;;;;;2.45;1.45;;;9.10;99.90;;;;;;5007038;28;20194;-69
2022/11/18 11:06:14;;;;;;;1.30;1.20;;;9.10;99.90;;;;;;5015496;28;20201;-68
2022/11/18 11:08:49;;;;;;;1.88;1.50;;;9.30;99.90;;;;;;5019593;28;20673;-66
2022/11/18 11:11:27;;;;;;;2.05;1.15;;;9.40;99.90;;;;;;5016526;28;20732;-68
2022/11/18 11:14:00;;;;;;;1.58;1.20;;;9.50;99.90;;;;;;5013146;28;20204;-69
2022/11/18 11:16:28;;;;;;;1.10;1.00;;;9.70;99.90;;;;;;5013085;28;20755;-69
2022/11/18 11:19:02;;;;;;;1.88;1.20;;;9.90;99.90;;;;;;5012347;28;20230;-68
2022/11/18 11:21:29;;;;;;;2.10;1.05;;;10.00;99.90;;;;;;5013296;28;20797;-69
2022/11/18 11:23:58;;;;;;;1.83;1.40;;;10.10;99.90;;;;;;5015213;28;20823;-69
2022/11/18 11:26:34;;;;;;;1.10;1.00;;;10.10;99.90;;;;;;5015113;28;20203;-69
2022/11/18 11:29:06;;;;;;;1.75;1.13;;;10.10;99.90;;;;;;5012571;28;20654;-69
2022/11/18 11:31:41;;;;;;;2.42;1.70;;;10.00;99.90;;;;;;5014920;28;20230;-68
2022/11/18 11:34:15;;;;;;;1.52;1.35;;;9.90;99.90;;;;;;5017303;28;20574;-68
2022/11/18 11:36:50;;;;;;;1.75;1.40;;;10.10;99.90;;;;;;5014821;28;20650;-69
2022/11/18 11:39:40;;;;;;;1.65;1.10;;;10.30;99.90;;;;;;5021501;28;20227;-69
2022/11/18 11:42:19;;;;;;;1.15;1.02;;;11.20;99.90;;;;;;5071588;22;20238;-91
2022/11/18 11:44:58;;;;;;;1.73;1.20;;;12.50;99.90;;;;;;5027016;28;20202;-92
2022/11/18 11:47:48;;;;;;;1.30;1.00;;;12.60;99.90;;;;;;5031725;28;20194;-93
2022/11/18 11:50:23;;;;;;;1.10;0.80;;;12.30;99.90;;;;;;5022636;22;20250;-70
2022/11/18 11:53:04;;;;;;;2.90;2.70;;;11.80;99.90;;;;;;4996280;28;20210;-70
2022/11/18 11:55:53;;;;;;;1.27;1.17;;;11.60;99.90;;;;;;4998303;28;20193;-69
2022/11/18 11:58:37;;;;;;;1.20;1.10;;;11.60;99.90;;;;;;5001195;28;20211;-70
2022/11/18 12:01:19;;;;;;;1.23;1.08;;;11.60;99.90;;;;;;4994826;28;20220;-71
2022/11/18 12:03:48;;;;;;;3.33;1.60;;;11.50;99.90;;;;;;4989357;28;20210;-71
2022/11/18 12:06:14;;;;;;;1.20;1.00;;;11.20;99.90;;;;;;5004043;28;20462;-70
2022/11/18 12:08:56;;;;;;;1.73;0.93;;;10.80;99.90;;;;;;5004689;28;20573;-69
2022/11/18 12:11:31;;;;;;;1.75;1.20;;;10.50;99.90;;;;;;5005855;28;20222;-70
2022/11/18 12:14:02;;;;;;;1.13;1.00;;;10.20;99.90;;;;;;4990769;28;20860;-70
2022/11/18 12:16:36;;;;;;;2.38;1.05;;;10.00;99.90;;;;;;5006876;28;20203;-70
2022/11/18 12:19:10;;;;;;;1.40;1.08;;;9.80;99.90;;;;;;5001804;28;20481;-69
2022/11/18 12:21:59;;;;;;;1.52;1.10;;;9.70;99.90;;;;;;5002667;28;20237;-70
2022/11/18 12:24:31;;;;;;;2.50;1.30;;;9.50;99.90;;;;;;5001375;28;20206;-70
2022/11/18 12:27:02;;;;;;;1.98;1.20;;;9.40;99.90;;;;;;4995947;28;20230;-71
2022/11/18 12:29:36;;;;;;;2.42;1.75;;;9.30;99.90;;;;;;5003819;28;20203;-71
2022/11/18 12:32:14;;;;;;;2.30;1.08;;;9.30;99.90;;;;;;4991984;28;20195;-71
2022/11/18 12:34:43;;;;;;;1.40;1.30;;;9.20;99.90;;;;;;5002000;28;20210;-71
2022/11/18 12:37:43;;;;;;;2.22;1.50;;;9.20;99.90;;;;;;4994998;28;20225;-71
2022/11/18 12:40:11;;;;;;;1.20;1.00;;;9.10;99.90;;;;;;5007109;28;20222;-71
2022/11/18 12:45:56;;;;;;;3.88;1.27;;;9.00;99.90;;;;;;5006068;28;20289;-70
2022/11/18 12:48:40;;;;;;;1.48;1.38;;;8.90;99.90;;;;;;4989445;28;20207;-69
2022/11/18 12:51:44;;;;;;;3.30;1.90;;;9.00;99.90;;;;;;4996757;28;20255;-71
2022/11/18 12:54:29;;;;;;;1.77;1.45;;;9.10;99.90;;;;;;5006012;28;20257;-70
2022/11/18 12:56:59;;;;;;;2.20;1.65;;;9.20;99.90;;;;;;4991840;28;20217;-69
2022/11/18 12:59:30;;;;;;;1.25;1.15;;;9.40;99.90;;;;;;5006876;28;20219;-69
2022/11/18 13:02:20;;;;;;;1.70;1.40;;;9.60;99.90;;;;;;5000395;28;20218;-70
2022/11/18 13:05:04;;;;;;;1.30;1.20;;;9.80;99.90;;;;;;5004635;28;20666;-69
2022/11/18 13:10:23;;;;;;;1.90;1.00;;;9.90;99.90;;;;;;5006273;28;20255;-70
2022/11/18 13:12:51;;;;;;;1.70;1.48;;;9.90;99.90;;;;;;4987413;28;20687;-70
2022/11/18 13:18:14;;;;;;;1.77;1.23;;;9.80;99.90;;;;;;5005764;28;20220;-70
2022/11/18 13:20:42;;;;;;;1.77;1.27;;;9.70;99.90;;;;;;4988749;28;20870;-70
2022/11/18 13:26:18;;;;;;;3.45;1.30;;;9.40;99.90;;;;;;4987129;28;20201;-69
2022/11/18 13:28:58;;;;;;;2.85;1.42;;;9.30;99.90;;;;;;5006874;28;20199;-70
2022/11/18 13:31:35;;;;;;;3.10;1.52;;;9.20;99.90;;;;;;4988193;28;20242;-69
2022/11/18 13:34:03;;;;;;;2.63;1.60;;;9.10;99.90;;;;;;5004639;28;20289;-70
2022/11/18 13:36:32;;;;;;;2.88;1.80;;;9.20;99.90;;;;;;5006924;28;20192;-70
2022/11/18 13:39:00;;;;;;;2.70;1.42;;;9.30;99.90;;;;;;4987034;28;20736;-69
2022/11/18 13:41:32;;;;;;;3.35;1.65;;;9.30;99.90;;;;;;4992788;28;20284;-71
2022/11/18 13:44:11;;;;;;;3.30;1.42;;;9.50;99.90;;;;;;5001828;28;20199;-70
2022/11/18 13:46:41;;;;;;;4.30;1.77;;;9.70;99.90;;;;;;4992773;28;20206;-70